Time;durP1;ratioP1;P1;durP2;ratioP2;P2;SDS_P1;SDS_P2;PMS_P1;PMS_P2;Temp;Humidity;BMP_temperature;BMP_pressure;BME280_temperature;BME280_humidity;BME280_pressure;Samples;Min_cycle;Max_cycle;Signal;HPM_P1;HPM_P2
2022/01/12 00:01:09;;;;;;;4.93;3.80;;;;;;;0.85;99.31;103270.06;5055789;28;20036;-72
2022/01/12 00:03:37;;;;;;;12.80;3.55;;;;;;;0.87;99.41;103274.38;5054547;28;20072;-72
2022/01/12 00:06:04;;;;;;;12.23;5.35;;;;;;;0.89;99.75;103282.13;5084015;27;20060;-72
2022/01/12 00:08:32;;;;;;;5.97;3.00;;;;;;;0.90;99.59;103270.91;5050742;28;20119;-71
2022/01/12 00:10:58;;;;;;;9.18;4.28;;;;;;;0.85;99.74;103270.06;5055052;28;20056;-73
2022/01/12 00:13:25;;;;;;;9.60;4.32;;;;;;;0.83;99.49;103271.78;5055113;28;20045;-72
2022/01/12 00:15:53;;;;;;;6.05;3.05;;;;;;;0.84;99.44;103294.19;5053873;28;20081;-72
2022/01/12 00:18:20;;;;;;;8.80;2.78;;;;;;;0.89;99.32;103308.88;5056822;28;20469;-73
2022/01/12 00:20:47;;;;;;;3.95;3.08;;;;;;;0.97;98.80;103314.03;5059216;28;20048;-74
2022/01/12 00:23:15;;;;;;;6.90;3.85;;;;;;;1.04;99.55;103308.88;5053985;28;20059;-72
2022/01/12 00:33:52;;;;;;;2.33;2.10;;;;;;;1.04;98.15;103293.34;5057460;28;20163;-72
2022/01/12 00:36:20;;;;;;;5.88;3.38;;;;;;;1.01;98.11;103293.34;5057150;28;20052;-74
2022/01/12 00:38:47;;;;;;;6.63;2.88;;;;;;;1.08;97.70;103314.91;5054590;28;20044;-70
2022/01/12 00:41:16;;;;;;;8.23;4.22;;;;;;;1.13;98.16;103313.19;5056262;28;20044;-71
2022/01/12 00:43:48;;;;;;;10.32;3.42;;;;;;;1.17;97.98;103307.16;5061011;28;20128;-71
2022/01/12 00:46:16;;;;;;;3.40;2.95;;;;;;;1.22;98.30;103313.19;5063353;28;20048;-72
2022/01/12 00:48:43;;;;;;;7.57;2.78;;;;;;;1.32;97.86;103330.44;5068120;28;20055;-73
2022/01/12 00:51:11;;;;;;;7.30;3.40;;;;;;;1.43;97.53;103341.66;5063727;28;20104;-71
2022/01/12 00:53:38;;;;;;;9.23;4.05;;;;;;;1.51;97.17;103338.19;5055744;28;20072;-73
2022/01/12 00:56:06;;;;;;;7.80;4.07;;;;;;;1.54;97.00;103343.38;5055769;28;20060;-72
2022/01/12 00:58:32;;;;;;;5.80;3.67;;;;;;;1.55;96.90;103344.22;5050882;28;20040;-70
2022/01/12 01:00:59;;;;;;;6.00;4.13;;;;;;;1.58;96.54;103341.63;5055765;28;20048;-72
2022/01/12 01:03:28;;;;;;;3.20;2.17;;;;;;;1.58;96.09;103336.47;5056152;28;20123;-71
2022/01/12 01:05:55;;;;;;;5.22;4.07;;;;;;;1.58;95.87;103340.78;5053907;28;20498;-71
2022/01/12 01:08:22;;;;;;;7.57;4.13;;;;;;;1.61;95.83;103338.16;5053998;28;20044;-72
2022/01/12 01:10:51;;;;;;;6.50;4.18;;;;;;;1.62;95.59;103347.66;5055888;28;20056;-71
2022/01/12 01:13:23;;;;;;;5.07;3.47;;;;;;;1.66;95.07;103339.03;5055507;28;20045;-72
2022/01/12 01:26:53;;;;;;;3.97;2.78;;;;;;;1.86;94.26;103370.94;5052948;28;20052;-72
2022/01/12 01:29:20;;;;;;;4.47;2.97;;;;;;;1.85;94.35;103371.81;5049786;28;20064;-72
2022/01/12 01:31:47;;;;;;;4.72;3.50;;;;;;;1.83;94.20;103378.75;5052581;28;20118;-72
2022/01/12 01:34:16;;;;;;;7.60;4.57;;;;;;;1.85;94.45;103382.16;5066581;28;20440;-71
2022/01/12 01:36:44;;;;;;;5.65;3.75;;;;;;;1.85;94.29;103382.16;5047868;28;20072;-72
2022/01/12 01:39:12;;;;;;;10.68;4.18;;;;;;;1.86;94.37;103378.72;5052049;28;20048;-71
2022/01/12 01:41:42;;;;;;;7.25;3.97;;;;;;;1.89;94.41;103385.63;5052188;28;20048;-72
2022/01/12 01:55:29;;;;;;;4.53;3.40;;;;;;;1.86;93.87;103367.50;5051893;28;20048;-73
2022/01/12 01:57:56;;;;;;;5.30;3.60;;;;;;;1.78;94.06;103359.72;5052708;28;20119;-72
2022/01/12 02:00:25;;;;;;;5.78;3.38;;;;;;;1.69;94.19;103356.31;5053689;28;20050;-73
2022/01/12 02:02:55;;;;;;;5.85;3.55;;;;;;;1.56;94.09;103345.94;5053124;28;20047;-72
2022/01/12 02:05:23;;;;;;;9.57;4.15;;;;;;;1.40;94.58;103341.66;5054308;28;20668;-72
2022/01/12 02:07:49;;;;;;;11.23;4.10;;;;;;;1.29;95.02;103335.59;5054197;28;20056;-72
2022/01/12 02:10:16;;;;;;;4.28;3.30;;;;;;;1.21;95.49;103340.81;5057176;28;20131;-73
2022/01/12 02:12:43;;;;;;;8.50;3.80;;;;;;;1.14;95.57;103351.13;5054415;28;20150;-72
2022/01/12 02:15:16;;;;;;;20.40;3.95;;;;;;;1.18;95.99;103355.47;5055397;28;20088;-73
2022/01/12 02:17:57;;;;;;;4.78;3.25;;;;;;;1.32;96.45;103366.69;5052466;28;20639;-72
2022/01/12 02:37:16;;;;;;;8.25;4.20;;;;;;;1.80;93.67;103329.50;5054572;28;20667;-71
2022/01/12 02:39:54;;;;;;;6.20;3.75;;;;;;;1.76;93.42;103324.31;5053599;28;20045;-73
2022/01/12 02:42:21;;;;;;;9.88;4.93;;;;;;;1.67;93.59;103330.41;5082946;27;20056;-73
2022/01/12 02:55:49;;;;;;;11.50;3.47;;;;;;;1.55;94.10;103347.69;5067128;28;20052;-73
2022/01/12 02:58:15;;;;;;;6.88;3.83;;;;;;;1.57;94.43;103350.28;5055017;28;20043;-72
2022/01/12 03:01:05;;;;;;;3.97;2.97;;;;;;;1.59;94.72;103352.88;5059345;28;20131;-72
2022/01/12 03:03:35;;;;;;;4.50;3.47;;;;;;;1.68;94.59;103345.06;5059591;28;20134;-73
2022/01/12 03:06:04;;;;;;;8.25;4.47;;;;;;;1.74;94.49;103346.78;5057042;28;20042;-73
2022/01/12 03:08:36;;;;;;;5.32;3.38;;;;;;;1.80;93.85;103347.63;5057958;28;20076;-73
2022/01/12 03:11:04;;;;;;;;;;;;;;;1.87;93.74;103351.94;5060435;28;20148;-74
2022/01/12 03:13:31;;;;;;;7.32;2.08;;;;;;;1.92;93.49;103354.53;5059963;28;19993;-71
2022/01/12 03:15:57;;;;;;;6.40;4.35;;;;;;;1.95;92.99;103352.78;5056588;28;20076;-71
2022/01/12 03:18:24;;;;;;;7.97;3.25;;;;;;;1.95;93.39;103349.34;5068901;28;20039;-74
2022/01/12 03:20:51;;;;;;;9.82;4.22;;;;;;;1.87;93.34;103349.34;5094688;28;20056;-71
2022/01/12 03:23:17;;;;;;;3.65;3.25;;;;;;;1.87;93.48;103354.53;5072837;28;20066;-73
2022/01/12 03:25:44;;;;;;;4.50;3.33;;;;;;;1.85;93.54;103366.63;5061249;28;20051;-71
2022/01/12 03:28:12;;;;;;;5.90;3.20;;;;;;;1.92;93.43;103373.53;5052853;28;20096;-72
2022/01/12 03:30:51;;;;;;;5.68;3.53;;;;;;;2.00;93.60;103387.34;5055999;28;20040;-72
2022/01/12 03:33:32;;;;;;;3.92;3.05;;;;;;;2.01;93.28;103386.44;5056568;28;20052;-72
2022/01/12 03:36:24;;;;;;;5.80;3.60;;;;;;;2.00;93.53;103392.53;5070027;28;20112;-73
2022/01/12 03:38:51;;;;;;;7.47;4.30;;;;;;;2.08;94.07;103408.94;5055029;28;20131;-73
2022/01/12 03:41:18;;;;;;;15.73;4.50;;;;;;;2.12;93.64;103407.19;5057669;28;20044;-72
2022/01/12 03:43:47;;;;;;;8.30;3.70;;;;;;;2.16;93.76;103416.66;5052062;28;20043;-73
2022/01/12 03:46:15;;;;;;;6.43;3.40;;;;;;;2.18;93.61;103412.34;5056085;28;20068;-72
2022/01/12 03:48:42;;;;;;;7.80;4.35;;;;;;;2.19;93.46;103407.16;5072459;28;20048;-74
2022/01/12 03:51:10;;;;;;;4.53;2.95;;;;;;;2.22;93.28;103417.53;5058442;28;20081;-72
2022/01/12 03:53:37;;;;;;;7.25;3.78;;;;;;;2.25;93.09;103412.34;5062322;28;20059;-71
2022/01/12 03:56:04;;;;;;;6.32;4.18;;;;;;;2.25;93.04;103409.75;5070012;28;20029;-72
2022/01/12 03:58:30;;;;;;;5.47;3.20;;;;;;;2.27;93.63;103407.13;5075019;28;20504;-72
2022/01/12 04:00:59;;;;;;;5.70;3.78;;;;;;;2.27;93.69;103402.81;5076155;28;20055;-73
2022/01/12 04:03:28;;;;;;;10.07;4.22;;;;;;;2.30;93.25;103397.63;5054986;28;20119;-73
2022/01/12 04:08:38;;;;;;;8.73;4.25;;;;;;;2.31;93.23;103388.97;5085885;27;20080;-73
2022/01/12 04:11:08;;;;;;;7.72;3.42;;;;;;;2.27;92.96;103376.88;5053913;28;20114;-71
2022/01/12 04:13:35;;;;;;;7.15;4.38;;;;;;;2.23;93.10;103384.66;5053321;28;20048;-73
2022/01/12 04:16:06;;;;;;;10.15;4.65;;;;;;;2.29;92.82;103390.69;5050895;28;20590;-74
2022/01/12 04:18:33;;;;;;;6.38;3.80;;;;;;;2.35;92.46;103385.50;5070584;28;20051;-73
2022/01/12 04:21:02;;;;;;;4.57;3.10;;;;;;;2.40;92.55;103378.56;5053284;28;20151;-73
2022/01/12 04:23:29;;;;;;;13.13;3.53;;;;;;;2.40;92.78;103388.94;5051644;28;20131;-72
2022/01/12 04:25:57;;;;;;;3.85;2.53;;;;;;;2.42;92.03;103402.78;5068770;28;20135;-73
2022/01/12 04:28:24;;;;;;;8.73;5.38;;;;;;;2.46;92.24;103409.66;5053831;28;20056;-74
2022/01/12 04:30:52;;;;;;;4.13;2.90;;;;;;;2.46;92.21;103415.69;5054207;28;20047;-72
2022/01/12 04:33:20;;;;;;;6.45;2.97;;;;;;;2.46;92.70;103409.66;5069832;28;20045;-72
2022/01/12 04:35:50;;;;;;;8.20;3.40;;;;;;;2.49;92.83;103423.47;5051751;28;20047;-72
2022/01/12 04:38:18;;;;;;;5.95;3.15;;;;;;;2.54;92.25;103431.25;5057669;28;20055;-74
2022/01/12 04:40:46;;;;;;;6.82;3.83;;;;;;;2.56;92.13;103437.31;5051812;28;20106;-71
2022/01/12 04:43:13;;;;;;;8.32;4.32;;;;;;;2.57;92.27;103433.84;5055059;28;20044;-71
2022/01/12 04:45:58;;;;;;;7.47;4.47;;;;;;;2.55;92.48;103430.38;5053059;28;20118;-73
2022/01/12 04:48:35;;;;;;;7.13;3.78;;;;;;;2.48;92.41;103424.34;5054024;28;20040;-72
2022/01/12 04:51:02;;;;;;;11.57;3.78;;;;;;;2.40;92.69;103422.66;5064102;28;20094;-73
2022/01/12 04:53:30;;;;;;;3.95;3.30;;;;;;;2.43;92.64;103426.09;5055313;28;20055;-72
2022/01/12 04:55:58;;;;;;;13.70;4.68;;;;;;;2.48;92.97;103424.34;5055438;28;20173;-73
2022/01/12 04:58:25;;;;;;;6.13;3.42;;;;;;;2.49;92.83;103418.28;5054685;28;20457;-73
2022/01/12 05:00:52;;;;;;;5.97;3.78;;;;;;;2.46;93.14;103420.03;5058718;28;20186;-67
2022/01/12 05:09:09;;;;;;;8.00;3.42;;;;;;;2.41;93.69;103414.03;5021110;28;20058;-72
2022/01/12 05:14:23;;;;;;;7.00;3.72;;;;;;;2.35;94.85;103416.59;5078166;28;20140;-72
2022/01/12 05:16:49;;;;;;;4.68;3.35;;;;;;;2.37;94.70;103414.88;5079271;28;20032;-70
2022/01/12 05:19:16;;;;;;;4.60;3.38;;;;;;;2.37;95.28;103412.28;5075409;28;20067;-71
2022/01/12 05:21:44;;;;;;;5.65;3.97;;;;;;;2.32;95.76;103406.25;5060210;28;20048;-72
2022/01/12 05:24:11;;;;;;;6.90;3.95;;;;;;;2.24;95.75;103408.03;5062577;28;20111;-73
2022/01/12 05:26:38;;;;;;;15.00;2.75;;;;;;;2.15;96.98;103400.25;5061179;28;20037;-73
2022/01/12 05:29:05;;;;;;;10.20;2.97;;;;;;;2.08;97.31;103401.16;5058531;28;20410;-72
2022/01/12 05:31:32;;;;;;;5.95;4.45;;;;;;;2.05;97.67;103395.97;5059238;28;20037;-71
2022/01/12 05:34:00;;;;;;;5.43;2.40;;;;;;;2.05;97.62;103397.72;5056488;28;20044;-73
2022/01/12 05:36:29;;;;;;;9.73;3.00;;;;;;;2.10;97.77;103394.22;5062176;28;20044;-71
2022/01/12 05:38:56;;;;;;;4.22;3.22;;;;;;;2.01;97.92;103402.00;5090441;28;20041;-73
2022/01/12 05:41:23;;;;;;;8.68;4.15;;;;;;;2.03;98.00;103389.06;5065114;28;20040;-71
2022/01/12 05:43:50;;;;;;;4.32;2.90;;;;;;;1.97;98.18;103407.22;5061638;28;20032;-71
2022/01/12 05:46:21;;;;;;;5.88;3.05;;;;;;;2.01;98.15;103414.97;5061157;28;20046;-72
2022/01/12 05:51:43;;;;;;;6.95;4.30;;;;;;;2.10;98.46;103417.53;5064023;28;20121;-72
2022/01/12 05:54:12;;;;;;;4.38;3.17;;;;;;;2.11;98.46;103427.03;5059713;28;20125;-72
2022/01/12 05:56:39;;;;;;;3.42;2.67;;;;;;;2.17;98.14;103433.97;5059885;28;20055;-72
2022/01/12 05:59:05;;;;;;;3.90;2.60;;;;;;;2.19;98.21;103443.44;5063910;28;20048;-73
2022/01/12 06:01:32;;;;;;;9.82;3.38;;;;;;;2.17;98.20;103429.66;5059917;28;20048;-74
2022/01/12 06:03:58;;;;;;;11.35;4.15;;;;;;;2.16;98.25;103425.31;5064258;28;20106;-72
2022/01/12 06:06:25;;;;;;;5.60;3.20;;;;;;;2.17;98.18;103428.78;5062353;28;20368;-73
2022/01/12 06:08:51;;;;;;;6.32;3.80;;;;;;;2.15;98.55;103423.59;5063634;28;20080;-72
2022/01/12 06:11:19;;;;;;;4.63;3.35;;;;;;;2.13;98.53;103420.13;5061933;28;20041;-72
2022/01/12 06:13:46;;;;;;;5.10;3.28;;;;;;;2.13;98.31;103429.66;5094476;28;20498;-73
2022/01/12 06:16:12;;;;;;;6.68;3.45;;;;;;;2.13;98.48;103421.88;5061299;28;20037;-73
2022/01/12 06:18:42;;;;;;;4.82;3.85;;;;;;;2.15;98.30;103428.78;5079654;28;20047;-74
2022/01/12 06:21:08;;;;;;;4.68;3.13;;;;;;;2.15;98.37;103431.38;5063638;28;20115;-71
2022/01/12 06:23:35;;;;;;;14.10;4.07;;;;;;;2.08;98.54;103434.84;5065111;28;20053;-71
2022/01/12 06:26:02;;;;;;;8.52;3.60;;;;;;;2.13;98.59;103430.50;5065883;28;20041;-72
2022/01/12 06:28:40;;;;;;;5.88;3.45;;;;;;;2.13;98.79;103440.03;5067843;28;20040;-71
2022/01/12 06:31:13;;;;;;;6.20;3.88;;;;;;;2.15;98.90;103433.97;5073674;28;20048;-72
2022/01/12 06:33:44;;;;;;;6.72;4.18;;;;;;;2.19;98.58;103440.84;5077280;28;20040;-74
2022/01/12 06:36:11;;;;;;;13.60;3.88;;;;;;;2.19;98.56;103450.38;5103422;28;20051;-73
2022/01/12 06:38:38;;;;;;;6.10;3.10;;;;;;;2.20;98.78;103452.97;5075528;28;20478;-71
2022/01/12 06:41:05;;;;;;;8.05;4.15;;;;;;;2.16;98.78;103460.75;5066713;28;20048;-73
2022/01/12 06:43:34;;;;;;;4.03;3.25;;;;;;;2.17;99.10;103455.56;5062419;28;20032;-75
2022/01/12 06:46:00;;;;;;;8.63;3.80;;;;;;;2.15;98.94;103469.38;5066150;28;20038;-72
2022/01/12 06:48:27;;;;;;;14.15;3.85;;;;;;;2.15;98.86;103464.19;5080764;28;20044;-71
2022/01/12 06:50:54;;;;;;;4.40;3.38;;;;;;;2.18;99.22;103467.66;5067110;28;20076;-71
2022/01/12 06:53:20;;;;;;;13.60;3.65;;;;;;;2.19;99.13;103471.97;5065311;28;20045;-72
2022/01/12 06:55:47;;;;;;;9.15;3.40;;;;;;;2.21;99.55;103483.22;5080153;28;20082;-72
2022/01/12 06:58:13;;;;;;;14.07;3.78;;;;;;;2.22;99.18;103486.66;5060307;28;20095;-72
2022/01/12 07:00:43;;;;;;;5.10;3.83;;;;;;;2.20;99.31;103497.03;5060694;28;20044;-72
2022/01/12 07:03:10;;;;;;;7.10;4.32;;;;;;;2.23;99.17;103493.56;5073341;28;20037;-74
2022/01/12 07:05:36;;;;;;;6.75;5.22;;;;;;;2.26;99.27;103507.41;5100047;27;20044;-72
2022/01/12 07:08:03;;;;;;;6.93;2.80;;;;;;;2.27;98.85;103510.88;5072691;28;20040;-71
2022/01/12 07:10:29;;;;;;;11.68;5.47;;;;;;;2.26;99.29;103512.56;5084257;28;20036;-74
2022/01/12 07:12:56;;;;;;;4.65;3.47;;;;;;;2.29;99.37;103520.38;5080869;28;20104;-73
2022/01/12 07:15:22;;;;;;;7.03;4.15;;;;;;;2.30;99.32;103527.28;5069932;28;20045;-73
2022/01/12 07:17:50;;;;;;;9.32;3.88;;;;;;;2.29;99.49;103535.94;5063602;28;20051;-72
2022/01/12 07:20:17;;;;;;;15.27;4.13;;;;;;;2.34;99.56;103538.50;5056583;28;20060;-71
2022/01/12 07:22:45;;;;;;;9.40;4.18;;;;;;;2.42;99.56;103535.91;5056346;28;20048;-73
2022/01/12 07:25:11;;;;;;;7.47;4.90;;;;;;;2.39;99.60;103535.06;5058784;28;20379;-72
2022/01/12 07:27:40;;;;;;;10.40;4.68;;;;;;;2.39;99.35;103537.66;5064946;28;20048;-72
2022/01/12 07:30:08;;;;;;;5.82;4.50;;;;;;;2.39;99.49;103527.28;5057208;28;20044;-73
2022/01/12 07:32:34;;;;;;;7.68;4.80;;;;;;;2.36;99.35;103537.63;5059779;28;20045;-72
2022/01/12 07:35:02;;;;;;;13.63;6.20;;;;;;;2.37;99.34;103544.56;5060259;28;20047;-73
2022/01/12 07:37:29;;;;;;;9.70;5.07;;;;;;;2.40;99.68;103545.41;5061579;28;20038;-73
2022/01/12 07:39:56;;;;;;;14.82;6.22;;;;;;;2.39;99.47;103548.03;5061539;28;20036;-73
2022/01/12 07:42:22;;;;;;;7.05;3.80;;;;;;;2.44;99.89;103546.28;5058469;28;20040;-72
2022/01/12 07:44:49;;;;;;;9.35;5.03;;;;;;;2.46;99.94;103552.34;5062479;28;20048;-73
2022/01/12 07:47:15;;;;;;;8.27;5.93;;;;;;;2.47;99.75;103546.28;5057602;28;20118;-73
2022/01/12 07:49:42;;;;;;;12.50;6.28;;;;;;;2.52;100.00;103549.72;5060486;28;20041;-73
2022/01/12 07:52:11;;;;;;;9.95;6.13;;;;;;;2.52;100.00;103544.53;5064298;28;20040;-73
2022/01/12 07:54:38;;;;;;;18.38;7.75;;;;;;;2.53;99.98;103557.53;5057398;28;20040;-73
2022/01/12 07:57:04;;;;;;;11.98;4.63;;;;;;;2.54;99.72;103541.09;5074125;28;20051;-73
2022/01/12 07:59:31;;;;;;;14.15;7.10;;;;;;;2.61;100.00;103554.91;5066090;28;20039;-72
2022/01/12 08:01:57;;;;;;;16.23;6.93;;;;;;;2.57;99.89;103556.63;5058592;28;20096;-72
2022/01/12 08:04:24;;;;;;;22.80;6.80;;;;;;;2.61;99.70;103555.78;5071577;28;20123;-73
2022/01/12 08:06:51;;;;;;;9.13;5.95;;;;;;;2.64;99.74;103562.69;5064590;28;20072;-71
2022/01/12 08:09:18;;;;;;;8.48;5.47;;;;;;;2.67;99.93;103555.75;5061517;28;20142;-72
2022/01/12 08:11:45;;;;;;;15.55;5.22;;;;;;;2.62;100.00;103565.28;5068471;28;20055;-72
2022/01/12 08:14:12;;;;;;;12.18;4.78;;;;;;;2.64;100.00;103573.91;5063267;28;20115;-72
2022/01/12 08:16:38;;;;;;;18.10;6.40;;;;;;;2.72;99.99;103571.31;5081210;28;20059;-70
2022/01/12 08:19:05;;;;;;;20.67;7.00;;;;;;;2.76;100.00;103578.22;5043849;28;20127;-72
2022/01/12 08:21:31;;;;;;;12.80;5.88;;;;;;;2.80;100.00;103579.94;5066915;28;20343;-72
2022/01/12 08:23:58;;;;;;;13.32;5.75;;;;;;;2.81;100.00;103586.88;5042483;28;20056;-71
2022/01/12 08:26:26;;;;;;;9.82;6.38;;;;;;;2.84;99.77;103592.91;5049157;28;20048;-71
2022/01/12 08:28:53;;;;;;;11.10;6.13;;;;;;;2.89;100.00;103600.69;5059590;28;20048;-70
2022/01/12 08:31:21;;;;;;;11.18;6.32;;;;;;;2.88;99.71;103599.81;5063369;28;20051;-73
2022/01/12 08:33:48;;;;;;;15.70;5.80;;;;;;;2.94;99.54;103611.91;5061760;28;20041;-72
2022/01/12 08:36:15;;;;;;;10.70;5.55;;;;;;;2.95;99.90;103624.03;5059927;28;20047;-72
2022/01/12 08:38:42;;;;;;;12.20;8.25;;;;;;;2.97;99.24;103623.16;5065371;28;20040;-71
2022/01/12 08:41:08;;;;;;;18.73;8.07;;;;;;;2.99;99.22;103620.59;5059648;28;20044;-73
2022/01/12 08:43:36;;;;;;;19.05;7.20;;;;;;;3.05;99.64;103615.34;5059536;28;20050;-72
2022/01/12 08:46:03;;;;;;;14.00;7.70;;;;;;;3.09;99.62;103623.13;5062135;28;20052;-73
2022/01/12 08:48:30;;;;;;;12.95;7.78;;;;;;;3.11;99.33;103618.81;5043527;28;21234;-72
2022/01/12 08:50:56;;;;;;;13.50;6.97;;;;;;;3.13;99.23;103629.19;5060874;28;20041;-73
2022/01/12 08:53:23;;;;;;;15.82;6.15;;;;;;;3.16;98.54;103635.22;5064842;28;20079;-72
2022/01/12 08:55:49;;;;;;;17.67;7.80;;;;;;;3.18;98.68;103629.16;5060780;28;20045;-74
2022/01/12 08:58:27;;;;;;;9.18;6.70;;;;;;;3.25;98.42;103630.00;5067963;28;20044;-70
2022/01/12 09:00:55;;;;;;;17.30;8.20;;;;;;;3.27;98.19;103629.13;5070067;28;20063;-72
2022/01/12 09:03:22;;;;;;;14.40;6.75;;;;;;;3.28;98.08;103630.84;5071758;28;20044;-69
2022/01/12 09:05:49;;;;;;;13.02;6.72;;;;;;;3.21;97.83;103636.94;5076534;28;20056;-70
2022/01/12 09:08:16;;;;;;;14.95;8.70;;;;;;;3.21;97.77;103639.53;5079112;28;20105;-69
2022/01/12 09:10:42;;;;;;;16.42;6.78;;;;;;;3.17;98.02;103643.00;5072323;28;20036;-71
2022/01/12 09:13:09;;;;;;;16.80;6.95;;;;;;;3.22;98.42;103646.47;5053087;28;20115;-70
2022/01/12 09:15:36;;;;;;;13.82;8.68;;;;;;;3.24;98.30;103636.06;5063991;28;20056;-69
2022/01/12 09:18:04;;;;;;;11.55;6.57;;;;;;;3.28;98.38;103643.84;5059909;28;20043;-69
2022/01/12 09:20:32;;;;;;;15.32;8.25;;;;;;;3.31;98.58;103636.06;5061919;28;20047;-70
2022/01/12 09:22:58;;;;;;;12.38;7.22;;;;;;;3.38;98.95;103636.88;5060326;28;20051;-73
2022/01/12 09:25:26;;;;;;;17.52;8.95;;;;;;;3.41;98.43;103632.53;5058491;28;20048;-72
2022/01/12 09:27:53;;;;;;;18.10;8.88;;;;;;;3.40;98.54;103623.03;5061633;28;20678;-73
2022/01/12 09:30:22;;;;;;;31.83;7.93;;;;;;;3.58;98.21;103627.28;5058775;28;20076;-72
2022/01/12 09:32:49;;;;;;;18.40;7.90;;;;;;;3.72;98.10;103628.94;5056732;28;20050;-72
2022/01/12 09:35:17;;;;;;;29.50;10.75;;;;;;;3.88;97.88;103630.56;5055079;28;20044;-72
2022/01/12 09:37:44;;;;;;;22.48;8.40;;;;;;;4.02;96.98;103636.53;5056392;28;20201;-72
2022/01/12 09:40:12;;;;;;;16.80;9.02;;;;;;;4.11;95.80;103645.13;5058205;28;20056;-70
2022/01/12 09:42:38;;;;;;;14.82;8.38;;;;;;;4.22;96.10;103639.88;5056539;28;20041;-70
2022/01/12 09:45:07;;;;;;;16.20;7.75;;;;;;;4.29;95.83;103644.16;5059958;28;20056;-70
2022/01/12 09:47:34;;;;;;;19.13;9.27;;;;;;;4.30;95.38;103662.34;5061008;28;20048;-70
2022/01/12 09:50:02;;;;;;;12.70;7.13;;;;;;;4.27;95.21;103656.31;5049953;28;20036;-71
2022/01/12 09:52:29;;;;;;;18.63;9.18;;;;;;;4.23;94.56;103665.00;5056068;28;20073;-71
2022/01/12 09:54:56;;;;;;;21.77;9.07;;;;;;;4.20;94.93;103665.88;5059139;28;20032;-72
2022/01/12 09:57:23;;;;;;;32.30;8.00;;;;;;;4.23;95.30;103671.09;5060062;28;20047;-71
2022/01/12 09:59:49;;;;;;;20.50;9.07;;;;;;;4.25;95.43;103677.16;5059182;28;20142;-72
2022/01/12 10:02:17;;;;;;;14.77;6.95;;;;;;;4.33;95.54;103671.88;5059084;28;20050;-72
2022/01/12 10:04:44;;;;;;;24.90;8.27;;;;;;;4.27;95.65;103679.72;5064542;28;20032;-71
2022/01/12 10:07:11;;;;;;;13.82;9.35;;;;;;;4.29;95.09;103675.38;5060923;28;20115;-69
2022/01/12 10:09:43;;;;;;;22.50;10.05;;;;;;;4.34;95.60;103684.00;5057148;28;20048;-73
2022/01/12 10:12:12;;;;;;;17.20;8.40;;;;;;;4.35;95.39;103685.75;5058235;28;20145;-71
2022/01/12 10:14:41;;;;;;;25.10;9.57;;;;;;;4.30;95.18;103693.56;5064855;28;20702;-73
2022/01/12 10:17:08;;;;;;;23.90;10.30;;;;;;;4.31;95.78;103699.66;5054229;28;20068;-72
2022/01/12 10:19:36;;;;;;;29.02;11.05;;;;;;;4.41;96.11;103691.78;5074581;28;20055;-72
2022/01/12 10:22:05;;;;;;;16.67;8.80;;;;;;;4.44;95.41;103694.34;5036109;28;20053;-69
2022/01/12 10:24:32;;;;;;;18.75;10.07;;;;;;;4.42;95.53;103690.03;5044703;28;20098;-71
2022/01/12 10:27:00;;;;;;;24.70;9.63;;;;;;;4.45;95.50;103692.63;5042992;28;20037;-73
2022/01/12 10:29:28;;;;;;;18.90;8.70;;;;;;;4.43;95.16;103697.81;5046198;28;20063;-70
2022/01/12 10:31:57;;;;;;;22.23;8.35;;;;;;;4.43;95.25;103694.34;5039364;28;20122;-71
2022/01/12 10:34:26;;;;;;;13.73;8.45;;;;;;;4.51;95.70;103682.16;5048075;28;20048;-71
2022/01/12 10:36:54;;;;;;;13.55;8.43;;;;;;;4.60;95.26;103687.28;5034571;28;20045;-71
2022/01/12 10:39:23;;;;;;;19.45;9.45;;;;;;;4.53;95.16;103677.81;5046257;28;20140;-72
2022/01/12 10:41:56;;;;;;;19.67;9.82;;;;;;;4.51;95.87;103689.97;5026652;28;20140;-71
2022/01/12 10:44:27;;;;;;;14.65;6.95;;;;;;;4.52;95.86;103686.47;5046488;28;20037;-71
2022/01/12 10:47:11;;;;;;;18.23;9.18;;;;;;;4.55;95.73;103686.47;5043898;28;20056;-72
2022/01/12 10:49:39;;;;;;;24.50;10.70;;;;;;;4.50;95.76;103694.31;5046700;28;20045;-72
2022/01/12 10:52:09;;;;;;;20.13;9.38;;;;;;;4.55;95.89;103687.31;5048623;28;20186;-71
2022/01/12 10:54:50;;;;;;;22.55;9.10;;;;;;;4.51;95.45;103682.16;5048257;28;20064;-73
2022/01/12 10:57:21;;;;;;;23.52;8.82;;;;;;;4.54;95.42;103697.75;5049068;28;20110;-72
2022/01/12 11:00:00;;;;;;;10.27;6.70;;;;;;;4.52;95.72;103700.34;5070515;28;20132;-72
2022/01/12 11:02:28;;;;;;;20.23;7.78;;;;;;;4.50;96.16;103696.03;5062818;28;20036;-72
2022/01/12 11:04:55;;;;;;;12.27;6.72;;;;;;;4.48;95.72;103702.97;5049511;28;20119;-73
2022/01/12 11:07:22;;;;;;;15.60;8.20;;;;;;;4.50;96.44;103701.25;5043832;28;20056;-71
2022/01/12 11:09:48;;;;;;;22.33;8.18;;;;;;;4.50;96.13;103696.91;5045701;28;20049;-72
2022/01/12 11:12:15;;;;;;;37.72;9.73;;;;;;;4.52;96.49;103699.50;5044046;28;20051;-72
2022/01/12 11:14:42;;;;;;;25.88;9.93;;;;;;;4.51;96.48;103696.03;5039322;28;20045;-73
2022/01/12 11:17:10;;;;;;;17.38;7.75;;;;;;;4.39;96.27;103700.47;5042294;28;20069;-71
2022/01/12 11:19:38;;;;;;;32.10;9.65;;;;;;;4.40;96.62;103699.56;5036235;28;20126;-72
2022/01/12 11:22:22;;;;;;;16.90;9.77;;;;;;;4.42;97.35;103687.41;5048392;28;20048;-68
2022/01/12 11:24:57;;;;;;;21.77;6.60;;;;;;;4.37;97.53;103686.59;5056531;28;20055;-71
2022/01/12 11:27:24;;;;;;;21.35;8.05;;;;;;;4.43;97.61;103694.34;5077577;28;20056;-72
2022/01/12 11:29:51;;;;;;;17.10;8.63;;;;;;;4.45;97.02;103697.81;5076649;28;20052;-71
2022/01/12 11:32:24;;;;;;;14.38;7.53;;;;;;;4.42;97.40;103703.91;5063774;28;20053;-72
2022/01/12 11:35:00;;;;;;;18.63;9.45;;;;;;;4.50;97.44;103702.13;5062682;28;20048;-70
2022/01/12 11:37:27;;;;;;;26.83;8.35;;;;;;;4.64;97.50;103696.81;5057986;28;20044;-71
2022/01/12 11:39:54;;;;;;;16.85;8.48;;;;;;;4.67;97.36;103686.34;5067826;28;20051;-70
2022/01/12 11:42:21;;;;;;;21.25;10.30;;;;;;;4.72;97.46;103704.53;5061174;28;20053;-69
2022/01/12 11:44:47;;;;;;;15.45;9.07;;;;;;;4.66;96.72;103705.44;5072180;28;20052;-70
2022/01/12 11:47:16;;;;;;;20.35;10.10;;;;;;;4.68;97.07;103711.53;5063716;28;20119;-68
2022/01/12 11:49:46;;;;;;;16.98;9.23;;;;;;;4.69;97.35;103702.84;5066734;28;20474;-67
2022/01/12 11:52:17;;;;;;;20.05;8.68;;;;;;;4.68;97.02;103694.13;5074075;28;20039;-69
2022/01/12 11:54:47;;;;;;;22.33;10.27;;;;;;;4.66;97.54;103692.44;5090536;28;20035;-68
2022/01/12 11:57:19;;;;;;;18.88;8.55;;;;;;;4.54;96.78;103692.56;5056953;28;20037;-68
2022/01/12 11:59:54;;;;;;;16.98;7.03;;;;;;;4.58;97.70;103678.63;5059120;28;20036;-69
2022/01/12 12:02:24;;;;;;;11.43;7.15;;;;;;;4.61;97.35;103686.41;5048148;28;20050;-69
2022/01/12 12:04:56;;;;;;;12.13;7.53;;;;;;;4.54;96.55;103695.16;5056287;28;20102;-69
2022/01/12 12:07:24;;;;;;;16.58;7.85;;;;;;;4.51;97.02;103680.44;5034450;28;20056;-72
2022/01/12 12:09:53;;;;;;;21.30;7.03;;;;;;;4.53;97.55;103675.19;5050717;28;20095;-71
2022/01/12 12:12:20;;;;;;;22.10;7.55;;;;;;;4.67;97.10;103684.63;5061320;28;20037;-72
2022/01/12 12:14:49;;;;;;;14.82;7.40;;;;;;;4.72;97.50;103682.84;5061509;28;20063;-73
2022/01/12 12:17:17;;;;;;;23.58;7.90;;;;;;;4.77;97.30;103686.25;5053309;28;20044;-74
2022/01/12 12:19:44;;;;;;;27.15;11.52;;;;;;;4.79;96.81;103690.59;5062552;28;20086;-73
2022/01/12 12:22:14;;;;;;;21.08;8.55;;;;;;;4.81;97.47;103693.19;5058977;28;20112;-72
2022/01/12 12:24:42;;;;;;;17.08;8.45;;;;;;;4.84;96.77;103696.63;5032968;28;20073;-72
2022/01/12 12:27:10;;;;;;;21.52;8.10;;;;;;;4.91;96.48;103689.63;5053081;28;20059;-74
2022/01/12 12:29:38;;;;;;;15.00;9.05;;;;;;;4.88;96.49;103693.09;5058287;28;20132;-72
2022/01/12 12:32:12;;;;;;;25.73;10.82;;;;;;;4.83;96.18;103700.09;5060985;28;20037;-72
2022/01/12 12:34:40;;;;;;;22.15;10.60;;;;;;;4.89;96.53;103693.97;5057779;28;20045;-72
2022/01/12 12:37:09;;;;;;;13.85;7.93;;;;;;;4.94;96.58;103690.44;5051888;28;20114;-71
2022/01/12 12:39:39;;;;;;;15.20;7.22;;;;;;;4.99;96.94;103693.88;5055769;28;20040;-73
2022/01/12 12:42:14;;;;;;;18.55;7.78;;;;;;;5.02;96.36;103699.06;5056117;28;20065;-71
2022/01/12 12:44:41;;;;;;;11.27;6.57;;;;;;;5.03;96.46;103702.50;5058501;28;20097;-70
2022/01/12 12:47:11;;;;;;;16.92;8.02;;;;;;;5.08;95.73;103703.34;5056358;28;20174;-69